createdAt,value
2017-05-22T00:00:19.325Z,77.30
2017-05-22T00:02:48.992Z,77.20
2017-05-22T00:05:18.739Z,77.30
2017-05-22T00:07:48.657Z,77.40
2017-05-22T00:10:19.207Z,77.20
2017-05-22T00:12:49.141Z,77.00
2017-05-22T00:15:18.906Z,77.30
2017-05-22T00:17:48.948Z,77.70
2017-05-22T00:20:18.769Z,77.90
2017-05-22T00:22:48.836Z,77.90
2017-05-22T00:25:19.404Z,77.20
2017-05-22T00:27:49.197Z,77.70
2017-05-22T00:30:19.337Z,77.00
2017-05-22T00:32:49.051Z,76.60
2017-05-22T00:35:19.048Z,77.10
2017-05-22T00:37:48.926Z,75.40
2017-05-22T00:40:19.140Z,76.40
2017-05-22T00:42:49.528Z,76.00
2017-05-22T00:45:19.412Z,76.50
2017-05-22T00:47:49.224Z,75.10
2017-05-22T00:50:19.332Z,75.10
2017-05-22T00:52:49.195Z,74.80
2017-05-22T00:55:19.065Z,74.80
2017-05-22T00:57:49.072Z,74.30
2017-05-22T01:00:19.320Z,73.80
2017-05-22T01:02:49.049Z,74.50
2017-05-22T01:05:19.186Z,74.30
2017-05-22T01:07:49.516Z,73.60
2017-05-22T01:10:19.163Z,73.60
2017-05-22T01:12:48.897Z,73.10
2017-05-22T01:15:18.614Z,71.90
2017-05-22T01:17:48.366Z,72.10
2017-05-22T01:20:18.104Z,72.30
2017-05-22T01:22:48.510Z,71.90
2017-05-22T01:25:18.829Z,72.00
2017-05-22T01:27:49.232Z,71.80
2017-05-22T01:30:19.535Z,72.90
2017-05-22T01:32:49.640Z,73.30
2017-05-22T01:35:19.963Z,72.60
2017-05-22T01:37:50.188Z,73.50
2017-05-22T01:40:20.474Z,73.50
2017-05-22T01:42:50.229Z,74.40
2017-05-22T01:45:20.053Z,73.90
2017-05-22T01:47:51.997Z,75.50
2017-05-22T01:50:22.245Z,75.10
2017-05-22T01:52:52.189Z,75.70
2017-05-22T01:55:21.948Z,77.00
2017-05-22T01:57:51.936Z,76.90
2017-05-22T02:00:22.203Z,77.00
2017-05-22T02:02:52.242Z,77.10
2017-05-22T02:05:22.273Z,77.60
2017-05-22T02:07:51.968Z,77.50
2017-05-22T02:10:22.514Z,76.80
2017-05-22T02:12:52.351Z,77.60
2017-05-22T02:15:22.349Z,77.00
2017-05-22T02:17:52.051Z,77.50
2017-05-22T02:20:21.719Z,77.30
2017-05-22T02:22:51.656Z,77.70
2017-05-22T02:25:21.372Z,78.00
2017-05-22T02:27:53.549Z,78.10
2017-05-22T02:30:24.086Z,78.00
2017-05-22T02:32:54.442Z,77.80
2017-05-22T02:35:24.373Z,78.40
2017-05-22T02:37:54.476Z,78.90
2017-05-22T02:40:24.425Z,78.50
2017-05-22T02:42:55.807Z,78.80
2017-05-22T02:45:25.858Z,78.90
2017-05-22T02:47:55.812Z,78.00
2017-05-22T02:50:25.624Z,78.80
2017-05-22T02:52:55.532Z,79.50
2017-05-22T02:55:25.484Z,79.30
2017-05-22T02:57:55.329Z,78.10
2017-05-22T03:00:25.325Z,77.60
2017-05-22T03:02:55.301Z,77.20
2017-05-22T03:05:24.984Z,77.60
2017-05-22T03:07:54.918Z,76.90
2017-05-22T03:10:24.796Z,77.90
2017-05-22T03:12:54.905Z,78.10
2017-05-22T03:15:24.731Z,78.80
2017-05-22T03:20:34.453Z,79.30
2017-05-22T03:23:04.536Z,78.90
2017-05-22T03:25:34.984Z,78.60
2017-05-22T03:28:05.535Z,78.80
2017-05-22T03:30:35.584Z,78.90
2017-05-22T03:33:05.286Z,78.90
2017-05-22T03:35:35.031Z,79.00
2017-05-22T03:38:04.714Z,79.90
2017-05-22T03:40:34.957Z,79.90
2017-05-22T03:43:05.231Z,79.50
2017-05-22T03:45:34.939Z,79.30
2017-05-22T03:48:05.208Z,79.30
2017-05-22T03:50:35.034Z,78.30
2017-05-22T03:53:05.235Z,77.80
2017-05-22T03:55:35.056Z,77.30
2017-05-22T03:58:05.327Z,77.30
2017-05-22T04:00:35.441Z,77.30
2017-05-22T04:03:05.221Z,78.10
2017-05-22T04:05:35.140Z,78.80
2017-05-22T04:08:04.961Z,78.50
2017-05-22T04:10:34.873Z,78.90
2017-05-22T04:13:04.966Z,79.40
2017-05-22T04:15:35.015Z,79.40
2017-05-22T04:18:05.247Z,79.50
2017-05-22T04:20:35.202Z,78.30
2017-05-22T04:23:05.297Z,77.80
2017-05-22T04:25:35.046Z,77.60
2017-05-22T04:28:05.448Z,77.00
2017-05-22T04:30:35.627Z,77.40
2017-05-22T04:33:05.380Z,78.20
2017-05-22T04:35:35.475Z,77.00
2017-05-22T04:38:05.605Z,76.50
2017-05-22T04:40:35.888Z,74.20
2017-05-22T04:43:05.624Z,74.70
2017-05-22T04:45:35.412Z,73.30
2017-05-22T04:48:05.441Z,73.00
2017-05-22T04:50:35.414Z,72.60
2017-05-22T04:53:05.284Z,72.50
2017-05-22T04:55:35.424Z,71.00
2017-05-22T04:58:05.685Z,70.60
2017-05-22T05:00:36.620Z,68.50
2017-05-22T05:03:06.703Z,67.80
2017-05-22T05:05:36.553Z,67.20
2017-05-22T05:08:06.322Z,68.60
2017-05-22T05:10:36.237Z,68.10
2017-05-22T05:13:06.116Z,66.50
2017-05-22T05:15:36.008Z,64.30
2017-05-22T05:18:05.640Z,65.50
2017-05-22T05:20:36.017Z,63.60
2017-05-22T05:23:06.016Z,61.40
2017-05-22T05:25:35.944Z,64.00
2017-05-22T05:28:06.488Z,63.30
2017-05-22T05:30:36.899Z,63.50
2017-05-22T05:33:06.608Z,63.00
2017-05-22T05:35:36.347Z,64.00
2017-05-22T05:38:05.964Z,63.60
2017-05-22T05:40:35.755Z,63.70
2017-05-22T05:43:05.666Z,63.30
2017-05-22T05:45:36.160Z,63.40
2017-05-22T05:48:05.887Z,63.90
2017-05-22T05:50:36.011Z,64.30
2017-05-22T05:53:05.751Z,63.40
2017-05-22T05:55:35.416Z,64.80
2017-05-22T05:58:05.608Z,66.10
2017-05-22T06:00:37.091Z,65.10
2017-05-22T06:03:07.026Z,66.50
2017-05-22T06:05:36.955Z,65.10
2017-05-22T06:08:07.487Z,65.20
2017-05-22T06:10:52.638Z,65.50
2017-05-22T06:13:22.502Z,65.70
2017-05-22T06:15:52.481Z,67.10
2017-05-22T06:18:22.807Z,68.40
2017-05-22T06:20:52.552Z,66.90
2017-05-22T06:23:22.443Z,65.70
2017-05-22T06:25:53.257Z,65.30
2017-05-22T06:28:23.465Z,67.10
2017-05-22T06:30:53.369Z,64.00
2017-05-22T06:33:23.696Z,63.10
2017-05-22T06:35:54.437Z,64.70
2017-05-22T06:38:24.300Z,65.70
2017-05-22T06:40:54.120Z,65.70
2017-05-22T06:43:25.958Z,64.80
2017-05-22T06:45:56.042Z,62.80
2017-05-22T06:48:26.672Z,64.10
2017-05-22T06:50:57.212Z,61.80
2017-05-22T06:53:27.408Z,62.30
2017-05-22T06:55:58.828Z,62.50
2017-05-22T06:58:28.709Z,61.70
2017-05-22T07:00:58.715Z,59.70
2017-05-22T07:03:28.542Z,59.30
2017-05-22T07:05:59.087Z,57.80
2017-05-22T07:08:29.127Z,53.60
2017-05-22T07:10:58.867Z,51.50
2017-05-22T07:13:28.745Z,47.40
2017-05-22T07:15:59.352Z,46.80
2017-05-22T07:18:29.454Z,47.50
2017-05-22T07:20:59.568Z,43.30
2017-05-22T07:23:29.499Z,42.50
2017-05-22T07:25:59.824Z,38.60
2017-05-22T07:28:31.341Z,37.00
2017-05-22T07:31:02.685Z,38.70
2017-05-22T07:33:32.665Z,35.60
2017-05-22T07:36:02.456Z,35.00
2017-05-22T07:38:32.812Z,37.50
2017-05-22T07:41:02.617Z,37.10
2017-05-22T07:43:32.848Z,33.10
2017-05-22T07:46:02.693Z,32.20
2017-05-22T07:48:32.989Z,32.30
2017-05-22T07:51:02.752Z,31.00
2017-05-22T08:06:06.562Z,33.50
2017-05-22T08:08:37.037Z,30.30
2017-05-22T08:11:07.916Z,32.10
2017-05-22T08:13:38.061Z,30.20
2017-05-22T08:16:08.516Z,31.90
2017-05-22T08:18:38.929Z,30.80
2017-05-22T08:21:08.846Z,29.50
2017-05-22T08:23:38.916Z,30.20
2017-05-22T08:26:08.787Z,32.20
2017-05-22T08:28:38.796Z,30.20
2017-05-22T08:31:09.362Z,28.80
2017-05-22T08:33:39.359Z,28.70
2017-05-22T08:36:09.928Z,32.20
2017-05-22T08:38:40.180Z,33.00
2017-05-22T08:41:09.880Z,34.20
2017-05-22T08:43:39.792Z,30.40
2017-05-22T08:46:09.495Z,30.00
2017-05-22T08:48:39.757Z,30.40
2017-05-22T08:51:11.088Z,29.20
2017-05-22T08:53:41.858Z,29.20
2017-05-22T08:56:11.778Z,29.60
2017-05-22T08:58:42.066Z,32.00
2017-05-22T09:01:17.096Z,31.30
2017-05-22T09:03:47.813Z,30.60
2017-05-22T09:06:18.877Z,31.70
2017-05-22T09:08:53.640Z,32.10
2017-05-22T09:11:23.404Z,29.30
2017-05-22T09:13:53.386Z,26.10
2017-05-22T09:16:23.101Z,24.60
2017-05-22T09:18:53.177Z,26.00
2017-05-22T09:21:23.152Z,25.30
2017-05-22T09:23:52.794Z,26.90
2017-05-22T09:26:22.910Z,25.10
2017-05-22T09:28:53.079Z,26.00
2017-05-22T09:31:22.968Z,27.30
2017-05-22T09:33:52.786Z,29.60
2017-05-22T09:36:22.578Z,28.20
2017-05-22T09:38:52.401Z,28.30
2017-05-22T09:41:23.973Z,26.70
2017-05-22T09:43:58.981Z,29.50
2017-05-22T09:46:35.826Z,26.30
2017-05-22T09:49:07.393Z,26.40
2017-05-22T09:51:37.567Z,26.70
2017-05-22T09:54:08.433Z,25.70
2017-05-22T09:56:39.637Z,25.50
2017-05-22T09:59:09.724Z,25.00
2017-05-22T10:01:40.063Z,25.50
2017-05-22T10:04:10.045Z,27.60
2017-05-22T10:06:40.213Z,25.80
2017-05-22T10:09:09.972Z,26.70
2017-05-22T10:11:39.645Z,26.80
2017-05-22T10:14:10.000Z,25.50
2017-05-22T10:16:39.911Z,24.60
2017-05-22T10:19:10.992Z,25.20
2017-05-22T10:21:42.386Z,26.10
2017-05-22T10:24:12.173Z,25.10
2017-05-22T10:26:41.933Z,24.80
2017-05-22T10:29:11.722Z,25.00
2017-05-22T10:31:42.048Z,24.60
2017-05-22T10:34:12.737Z,24.40
2017-05-22T10:36:44.035Z,23.60
2017-05-22T10:39:14.071Z,23.00
2017-05-22T10:41:43.649Z,24.40
2017-05-22T10:44:13.781Z,22.70
2017-05-22T10:46:43.650Z,23.60
2017-05-22T10:49:13.473Z,24.10
2017-05-22T10:51:42.950Z,23.90
2017-05-22T10:54:12.410Z,25.30
2017-05-22T10:56:44.015Z,25.70
2017-05-22T10:59:13.830Z,26.70
2017-05-22T11:01:43.748Z,27.10
2017-05-22T11:04:13.510Z,28.40
2017-05-22T11:06:43.576Z,27.30
2017-05-22T11:09:15.042Z,27.90
2017-05-22T11:11:46.565Z,26.70
2017-05-22T11:14:16.772Z,26.00
2017-05-22T11:16:46.795Z,26.20
2017-05-22T11:19:16.486Z,29.40
2017-05-22T11:21:46.552Z,30.50
2017-05-22T11:24:17.552Z,29.90
2017-05-22T11:26:47.403Z,29.40
2017-05-22T11:29:17.981Z,30.60
2017-05-22T11:31:48.696Z,29.80
2017-05-22T11:34:18.821Z,28.00
2017-05-22T11:36:48.765Z,24.40
2017-05-22T11:39:18.557Z,25.70
2017-05-22T11:41:49.178Z,27.30
2017-05-22T11:44:19.377Z,29.00
2017-05-22T11:46:49.490Z,28.40
2017-05-22T11:49:19.404Z,25.10
2017-05-22T11:51:49.661Z,25.00
2017-05-22T11:54:20.025Z,25.50
2017-05-22T11:56:50.234Z,25.10
2017-05-22T11:59:21.517Z,25.00
2017-05-22T12:01:51.463Z,27.20
2017-05-22T12:04:22.440Z,27.10
2017-05-22T12:06:52.440Z,26.50
2017-05-22T12:09:22.575Z,29.10
2017-05-22T12:11:52.712Z,29.90
2017-05-22T12:14:22.822Z,28.40
2017-05-22T12:16:52.549Z,29.40
2017-05-22T12:19:29.488Z,28.30
2017-05-22T12:21:59.316Z,28.30
2017-05-22T12:24:29.984Z,28.90
2017-05-22T12:26:59.976Z,29.30
2017-05-22T12:29:30.098Z,29.90
2017-05-22T12:32:00.664Z,26.90
2017-05-22T12:34:31.144Z,25.40
2017-05-22T12:37:00.848Z,25.40
2017-05-22T12:39:30.592Z,26.50
2017-05-22T12:42:00.271Z,25.40
2017-05-22T12:44:30.050Z,27.60
2017-05-22T12:46:59.688Z,27.90
2017-05-22T12:49:29.849Z,28.50
2017-05-22T12:51:59.877Z,29.40
2017-05-22T12:54:30.022Z,28.50
2017-05-22T12:56:59.965Z,28.30
2017-05-22T12:59:29.696Z,28.50
2017-05-22T13:01:59.413Z,27.10
2017-05-22T13:04:30.088Z,25.30
2017-05-22T13:06:59.960Z,25.30
2017-05-22T13:09:29.765Z,25.60
2017-05-22T13:11:59.531Z,26.30
2017-05-22T13:14:29.519Z,26.50
2017-05-22T13:16:59.180Z,27.60
2017-05-22T13:19:29.125Z,27.00
2017-05-22T13:21:59.131Z,29.20
2017-05-22T13:24:28.810Z,30.60
2017-05-22T13:26:59.079Z,33.60
2017-05-22T13:29:29.798Z,28.30
2017-05-22T13:32:00.340Z,28.80
2017-05-22T13:34:30.672Z,30.40
2017-05-22T13:37:01.245Z,30.00
2017-05-22T13:39:31.146Z,30.90
2017-05-22T13:42:01.168Z,29.00
2017-05-22T13:44:32.210Z,29.70
2017-05-22T13:47:02.113Z,29.90
2017-05-22T13:49:31.868Z,31.00
2017-05-22T13:52:01.787Z,32.10
2017-05-22T13:54:40.889Z,33.80
2017-05-22T13:57:10.889Z,35.10
2017-05-22T13:59:41.201Z,31.20
2017-05-22T14:02:10.937Z,30.50
2017-05-22T14:04:40.941Z,33.20
2017-05-22T14:07:10.987Z,35.30
2017-05-22T14:09:41.184Z,36.70
2017-05-22T14:12:10.961Z,35.90
2017-05-22T14:14:40.849Z,36.20
2017-05-22T14:17:10.562Z,37.20
2017-05-22T14:19:40.413Z,37.30
2017-05-22T14:22:10.559Z,36.80
2017-05-22T14:24:41.226Z,34.00
2017-05-22T14:27:11.075Z,32.50
2017-05-22T14:29:41.025Z,32.10
2017-05-22T14:32:10.881Z,34.30
2017-05-22T14:34:41.148Z,32.70
2017-05-22T14:37:10.945Z,33.00
2017-05-22T14:39:40.649Z,32.20
2017-05-22T14:42:10.714Z,34.10
2017-05-22T14:44:40.501Z,33.90
2017-05-22T14:47:11.128Z,37.00
2017-05-22T14:49:41.125Z,35.30
2017-05-22T14:52:10.834Z,35.60
2017-05-22T14:54:40.564Z,37.20
2017-05-22T14:57:10.072Z,36.10
2017-05-22T14:59:39.816Z,35.70
2017-05-22T15:02:09.548Z,35.30
2017-05-22T15:04:39.603Z,35.00
2017-05-22T15:07:09.556Z,34.80
2017-05-22T15:09:39.412Z,36.10
2017-05-22T15:12:09.252Z,35.50
2017-05-22T15:14:39.181Z,36.90
2017-05-22T15:17:09.289Z,36.30
2017-05-22T15:19:39.223Z,37.40
2017-05-22T15:22:09.548Z,38.50
2017-05-22T15:24:38.993Z,37.60
2017-05-22T15:27:09.005Z,38.80
2017-05-22T15:29:38.518Z,38.00
2017-05-22T15:32:09.762Z,36.90
2017-05-22T15:34:39.995Z,34.70
2017-05-22T15:37:37.408Z,37.30
2017-05-22T15:40:08.138Z,36.10
2017-05-22T15:42:38.205Z,38.00
2017-05-22T15:45:09.818Z,37.50
2017-05-22T15:47:40.061Z,37.20
2017-05-22T15:50:09.770Z,38.00
2017-05-22T15:52:39.888Z,36.30
2017-05-22T15:55:09.570Z,38.00
2017-05-22T15:57:39.276Z,37.90
2017-05-22T16:00:08.832Z,36.50
2017-05-22T16:02:38.701Z,36.00
2017-05-22T16:05:08.644Z,35.90
2017-05-22T16:07:39.276Z,37.10
2017-05-22T16:10:09.100Z,37.00
2017-05-22T16:12:39.884Z,36.60
2017-05-22T16:15:09.846Z,36.50
2017-05-22T16:17:40.947Z,36.80
2017-05-22T16:20:10.476Z,36.30
2017-05-22T16:22:40.041Z,37.00
2017-05-22T16:25:09.845Z,36.30
2017-05-22T16:27:39.838Z,36.80
2017-05-22T16:30:09.504Z,37.90
2017-05-22T16:32:39.197Z,38.50
2017-05-22T16:35:09.497Z,38.60
2017-05-22T16:37:39.125Z,38.40
2017-05-22T16:40:09.090Z,41.00
2017-05-22T16:42:38.754Z,39.50
2017-05-22T16:45:08.500Z,39.20
2017-05-22T16:47:40.256Z,40.00
2017-05-22T16:50:10.060Z,38.20
2017-05-22T16:52:40.101Z,38.50
2017-05-22T16:55:09.987Z,38.90
2017-05-22T16:57:40.120Z,38.00
2017-05-22T17:00:09.812Z,37.90
2017-05-22T17:02:39.776Z,38.00
2017-05-22T17:05:09.749Z,38.40
2017-05-22T17:07:39.681Z,37.60
2017-05-22T17:10:09.788Z,37.90
2017-05-22T17:12:39.589Z,38.30
2017-05-22T17:15:09.082Z,39.30
2017-05-22T17:17:38.812Z,38.80
2017-05-22T17:20:08.540Z,39.20
2017-05-22T17:22:38.429Z,38.70
2017-05-22T17:25:08.189Z,40.00
2017-05-22T17:27:38.300Z,39.60
2017-05-22T17:30:07.993Z,39.20
2017-05-22T17:32:37.982Z,39.20
2017-05-22T17:35:08.388Z,39.80
2017-05-22T17:37:38.369Z,40.20
2017-05-22T17:40:08.051Z,41.00
2017-05-22T17:42:37.810Z,41.20
2017-05-22T17:45:08.433Z,41.10
2017-05-22T17:47:38.697Z,40.90
2017-05-22T17:50:08.770Z,41.60
2017-05-22T17:52:38.503Z,41.70
2017-05-22T17:55:08.170Z,42.00
2017-05-22T17:57:38.089Z,42.90
2017-05-22T18:00:08.129Z,42.60
2017-05-22T18:02:38.405Z,43.10
2017-05-22T18:05:09.071Z,43.60
2017-05-22T18:07:43.425Z,43.80
2017-05-22T18:10:14.093Z,45.10
2017-05-22T18:12:43.608Z,44.10
2017-05-22T18:15:13.154Z,45.00
2017-05-22T18:17:42.624Z,45.30
2017-05-22T18:20:12.102Z,45.10
2017-05-22T18:22:42.228Z,45.50
2017-05-22T18:25:12.916Z,45.00
2017-05-22T18:27:43.560Z,45.80
2017-05-22T18:30:13.565Z,46.00
2017-05-22T18:32:43.289Z,46.50
2017-05-22T18:35:13.887Z,46.80
2017-05-22T18:37:43.789Z,46.80
2017-05-22T18:40:14.121Z,47.20
2017-05-22T18:42:43.993Z,46.90
2017-05-22T18:45:13.858Z,46.40
2017-05-22T18:47:43.589Z,47.30
2017-05-22T18:50:13.486Z,47.60
2017-05-22T18:52:43.156Z,48.50
2017-05-22T18:55:13.141Z,48.30
2017-05-22T18:57:43.213Z,50.40
2017-05-22T19:00:13.881Z,50.00
2017-05-22T19:02:43.749Z,51.00
2017-05-22T19:05:13.263Z,50.10
2017-05-22T19:07:43.129Z,50.40
2017-05-22T19:10:12.835Z,50.10
2017-05-22T19:12:42.937Z,50.50
2017-05-22T19:15:13.045Z,50.50
2017-05-22T19:17:42.827Z,50.90
2017-05-22T19:20:13.124Z,51.40
2017-05-22T19:22:43.400Z,52.60
2017-05-22T19:25:15.088Z,52.50
2017-05-22T19:27:45.489Z,55.20
2017-05-22T19:30:16.300Z,54.90
2017-05-22T19:32:46.497Z,57.20
2017-05-22T19:35:16.425Z,57.50
2017-05-22T19:37:46.179Z,57.70
2017-05-22T19:40:16.174Z,56.80
2017-05-22T19:42:46.020Z,56.80
2017-05-22T19:45:17.184Z,57.60
2017-05-22T19:47:47.855Z,58.90
2017-05-22T19:50:18.015Z,59.80
2017-05-22T19:52:48.176Z,61.10
2017-05-22T19:55:18.301Z,60.70
2017-05-22T19:57:48.202Z,61.10
2017-05-22T20:00:18.013Z,61.40
2017-05-22T20:02:47.862Z,62.30
2017-05-22T20:05:17.636Z,62.00
2017-05-22T20:07:47.895Z,61.90
2017-05-22T20:10:17.684Z,61.50
2017-05-22T20:12:47.904Z,61.50
2017-05-22T20:15:18.118Z,61.10
2017-05-22T20:17:48.073Z,61.50
2017-05-22T20:20:17.893Z,61.30
2017-05-22T20:22:47.653Z,62.20
2017-05-22T20:25:17.498Z,61.30
2017-05-22T20:27:47.208Z,61.90
2017-05-22T20:30:16.977Z,61.80
2017-05-22T20:32:47.150Z,61.80
2017-05-22T20:35:17.354Z,62.20
2017-05-22T20:37:47.021Z,62.30
2017-05-22T20:40:17.354Z,62.50
2017-05-22T20:42:47.251Z,62.50
2017-05-22T20:45:17.672Z,62.80
2017-05-22T20:47:47.515Z,63.70
2017-05-22T20:50:17.228Z,64.20
2017-05-22T20:52:46.985Z,65.70
2017-05-22T20:55:16.670Z,65.40
2017-05-22T20:57:46.631Z,66.40
2017-05-22T21:00:17.054Z,67.10
2017-05-22T21:02:46.848Z,69.10
2017-05-22T21:05:22.046Z,69.70
2017-05-22T21:07:51.981Z,69.80
2017-05-22T21:10:22.083Z,71.00
2017-05-22T21:12:51.983Z,70.20
2017-05-22T21:15:22.609Z,70.30
2017-05-22T21:17:52.749Z,70.90
2017-05-22T21:20:23.034Z,70.50
2017-05-22T21:22:52.872Z,71.10
2017-05-22T21:25:23.880Z,69.60
2017-05-22T21:27:53.608Z,70.50
2017-05-22T21:30:23.648Z,70.00
2017-05-22T21:32:53.418Z,69.40
2017-05-22T21:35:23.564Z,69.20
2017-05-22T21:37:53.400Z,69.30
2017-05-22T21:40:23.183Z,70.90
2017-05-22T21:42:53.334Z,70.70
2017-05-22T21:45:24.776Z,70.70
2017-05-22T21:47:54.133Z,70.30
2017-05-22T21:50:23.397Z,70.80
2017-05-22T21:52:52.598Z,70.60
2017-05-22T21:55:22.105Z,70.60
2017-05-22T21:57:51.323Z,69.90
2017-05-22T22:00:20.664Z,69.70
2017-05-22T22:02:50.323Z,70.00
2017-05-22T22:05:19.897Z,69.60
2017-05-22T22:07:49.796Z,70.40
2017-05-22T22:10:19.065Z,70.30
2017-05-22T22:12:49.122Z,70.00
2017-05-22T22:15:18.344Z,70.10
2017-05-22T22:17:47.669Z,70.00
2017-05-22T22:20:17.058Z,69.60
2017-05-22T22:22:46.390Z,69.80
2017-05-22T22:25:16.134Z,69.60
2017-05-22T22:27:45.375Z,69.90
2017-05-22T22:30:14.698Z,69.90
2017-05-22T22:32:44.211Z,70.80
2017-05-22T22:35:13.760Z,70.80
2017-05-22T22:37:43.425Z,72.80
2017-05-22T22:40:12.745Z,70.60
2017-05-22T22:42:42.621Z,71.10
2017-05-22T22:45:12.184Z,71.70
2017-05-22T22:47:41.416Z,72.60
2017-05-22T22:50:11.749Z,72.70
2017-05-22T22:52:41.344Z,72.70
2017-05-22T22:55:10.751Z,72.50
2017-05-22T22:57:40.052Z,73.10
2017-05-22T23:00:09.389Z,73.90
2017-05-22T23:02:38.785Z,74.10
2017-05-22T23:05:08.460Z,74.70
2017-05-22T23:07:37.668Z,74.40
2017-05-22T23:10:07.051Z,74.40
2017-05-22T23:12:36.599Z,73.60
2017-05-22T23:15:06.233Z,74.50
2017-05-22T23:17:35.578Z,74.90
2017-05-22T23:20:04.827Z,74.80
2017-05-22T23:22:34.219Z,74.90
2017-05-22T23:25:03.867Z,75.60
2017-05-22T23:27:33.136Z,75.80
2017-05-22T23:30:02.480Z,76.10
2017-05-22T23:32:31.745Z,75.10
2017-05-22T23:35:01.428Z,74.80
2017-05-22T23:37:30.741Z,74.20
2017-05-22T23:40:00.281Z,73.10
2017-05-22T23:42:29.741Z,73.00
2017-05-22T23:44:59.481Z,72.70
2017-05-22T23:47:28.957Z,72.70
2017-05-22T23:49:58.261Z,72.00
2017-05-22T23:52:27.563Z,72.50
2017-05-22T23:54:57.126Z,72.30
2017-05-22T23:57:26.328Z,71.90
2017-05-22T23:59:55.731Z,72.00
